Aérodrome :
LOGIN :

S'inscrire | Disclaimer

   EN    FR    IT 

 










Légende :    VFR   VFR Marginal   IFR   IFR Intensif   IFR Très Intensif
Visi : 
Plafond : 
>= 8 km
>= 3000ft
5 à 8 km
1000 à 3000 ft
1500m à 5 km
500 à 1000 ft
800 à 1500m
200 à 500 ft
< 800m
< 200 ft
Symboles :   Orages  Brouillard  Fortes neiges  Fortes précipitations  Vent > 20 kt
SIGMETs :   Divers  Orages  Givrage  Turbulence  Onde Orograph.  Cendres Volcan.






- Altitude de l'aérodrome : 68 ft


ESCM - Uppsala

DERNIER METAR :
  • 271750Z AUTO 01003KT 9999 -SHSN OVC027/// M02/M04 Q0998

METARs EXPIRÉS :
  • 271720Z AUTO 01003KT 9999 -SN OVC026/// M02/M04 Q0998
  • 271650Z AUTO 35003KT 9999 -SN OVC026/// M02/M03 Q0998
  • 271620Z AUTO 02004KT 9000 -SN OVC028/// M02/M04 Q0997
  • 271550Z 03005KT 9999 -SN BKN030 M02/M04 Q0997
  • 271520Z 03005KT 8000 -SN BKN030 M02/M04 Q0997

TAF TAF ESCM
Valide du 27 à 15h jusqu'au 27 à 21h UTC


271425Z 2715/2721 06008KT 9999 -SN BKN025
TEMPO 2715/2718 3000 SN SG VV014 RMK MIL



MET'MAP, la Météo Aéronautique d'un coup d'oeil ! - Copyright ORBIFLY Décembre 2007 - Disclaimer

ORBIFLY MET'MAP TEAM :

Programmation & Développement : Alexandra Zaïnal
Sur une idée originale de : Baudouin d'Aumeries
Assistance à la programmation : Marc-Olivier Méhu
Soutien technique & logistique : Manuel Goepfert

Contact : metmap@orbifly.com




SOURCES & CREDITS :

   NOAA